Time;durP1;ratioP1;P1;durP2;ratioP2;P2;SDS_P1;SDS_P2;PMS_P1;PMS_P2;Temp;Humidity;BMP_temperature;BMP_pressure;BME280_temperature;BME280_humidity;BME280_pressure;Samples;Min_cycle;Max_cycle;Signal;HPM_P1;HPM_P2
2022/04/03 00:00:40;;;;;;;4.57;2.37;;;-2.00;99.90;;;;;;5102977;27;20074;-75
2022/04/03 00:03:08;;;;;;;5.77;2.13;;;-2.00;99.90;;;;;;5110195;27;20485;-75
2022/04/03 00:05:38;;;;;;;3.83;2.20;;;-1.90;99.90;;;;;;5098145;27;20328;-75
2022/04/03 00:08:04;;;;;;;5.47;2.40;;;-2.00;99.90;;;;;;5089897;27;20305;-75
2022/04/03 00:10:31;;;;;;;5.17;2.23;;;-2.10;99.90;;;;;;5108045;27;20296;-75
2022/04/03 00:12:56;;;;;;;5.63;2.13;;;-2.00;99.90;;;;;;5105728;27;20323;-75
2022/04/03 00:15:22;;;;;;;4.67;2.03;;;-2.10;99.90;;;;;;5111470;27;20344;-75
2022/04/03 00:17:48;;;;;;;4.57;2.03;;;-2.10;99.90;;;;;;5127343;27;20043;-75
2022/04/03 00:20:14;;;;;;;5.53;2.70;;;-2.20;99.90;;;;;;5106869;27;20043;-75
2022/04/03 00:22:43;;;;;;;3.57;2.33;;;-2.20;99.90;;;;;;5106547;27;20508;-74
2022/04/03 00:25:11;;;;;;;4.90;2.10;;;-2.20;99.90;;;;;;5103226;27;20674;-75
2022/04/03 00:27:37;;;;;;;7.67;2.60;;;-2.20;99.90;;;;;;5108759;27;20336;-75
2022/04/03 00:30:04;;;;;;;5.87;3.03;;;-2.20;99.90;;;;;;5109035;27;20805;-75
2022/04/03 00:32:29;;;;;;;5.07;2.60;;;-2.20;99.90;;;;;;5112902;27;20051;-75
2022/04/03 00:34:55;;;;;;;5.20;2.50;;;-2.20;99.90;;;;;;5105287;27;20732;-75
2022/04/03 00:37:21;;;;;;;6.43;2.77;;;-2.20;99.90;;;;;;5110152;27;20133;-75
2022/04/03 00:39:48;;;;;;;6.70;2.80;;;-2.30;99.90;;;;;;5091189;27;20527;-75
2022/04/03 00:42:13;;;;;;;6.27;3.20;;;-2.20;99.90;;;;;;5100693;27;20053;-75
2022/04/03 00:44:40;;;;;;;5.93;2.80;;;-2.10;99.90;;;;;;5101573;27;20293;-75
2022/04/03 00:47:06;;;;;;;5.53;2.93;;;-2.20;99.90;;;;;;5103458;27;20063;-74
2022/04/03 00:49:32;;;;;;;7.07;2.60;;;-2.20;99.90;;;;;;5101980;27;20678;-75
2022/04/03 00:51:58;;;;;;;5.57;3.00;;;-2.20;99.90;;;;;;5072697;27;20312;-74
2022/04/03 00:54:24;;;;;;;5.33;2.53;;;-2.20;99.90;;;;;;5084741;27;20297;-75
2022/04/03 00:56:52;;;;;;;4.47;2.57;;;-2.20;99.90;;;;;;5079140;27;20640;-75
2022/04/03 00:59:18;;;;;;;8.50;2.80;;;-2.30;99.90;;;;;;5092023;27;20338;-74
2022/04/03 01:01:45;;;;;;;6.30;3.00;;;-2.30;99.90;;;;;;5112619;27;20692;-74
2022/04/03 01:04:11;;;;;;;9.77;2.93;;;-2.30;99.90;;;;;;5098812;27;20035;-74
2022/04/03 01:06:37;;;;;;;5.60;2.80;;;-2.30;99.90;;;;;;5110973;27;20408;-74
2022/04/03 01:09:04;;;;;;;4.70;2.77;;;-2.30;99.90;;;;;;5109165;27;20886;-74
2022/04/03 01:11:30;;;;;;;6.00;2.93;;;-2.30;99.90;;;;;;5102250;27;20374;-75
2022/04/03 01:13:57;;;;;;;6.97;2.80;;;-2.30;99.90;;;;;;5108388;27;20316;-75
2022/04/03 01:16:24;;;;;;;6.37;2.87;;;-2.30;99.90;;;;;;5102297;27;20051;-74
2022/04/03 01:18:50;;;;;;;5.17;2.93;;;-2.30;99.90;;;;;;5102641;27;20375;-75
2022/04/03 01:21:18;;;;;;;4.97;2.77;;;-2.30;99.90;;;;;;5087607;27;20670;-75
2022/04/03 01:23:45;;;;;;;6.13;2.70;;;-2.30;99.90;;;;;;5113496;27;20349;-75
2022/04/03 01:26:12;;;;;;;7.77;3.10;;;-2.30;99.90;;;;;;5106240;27;20304;-75
2022/04/03 01:28:38;;;;;;;5.50;2.80;;;-2.40;99.90;;;;;;5110560;27;20824;-75
2022/04/03 01:31:04;;;;;;;8.20;3.20;;;-2.40;99.90;;;;;;5104878;28;20297;-75
2022/04/03 01:33:30;;;;;;;7.20;2.43;;;-2.30;99.90;;;;;;5117813;27;20313;-75
2022/04/03 01:35:56;;;;;;;7.53;3.37;;;-2.30;99.90;;;;;;5110363;27;20039;-75
2022/04/03 01:38:21;;;;;;;10.20;4.80;;;-2.40;99.90;;;;;;5104249;27;20039;-75
2022/04/03 01:40:47;;;;;;;11.50;4.37;;;-2.40;99.90;;;;;;5095483;27;20054;-75
2022/04/03 01:43:14;;;;;;;12.83;6.30;;;-2.40;99.90;;;;;;5107476;27;20043;-75
2022/04/03 01:45:41;;;;;;;9.50;4.20;;;-2.40;99.90;;;;;;5098902;28;20409;-75
2022/04/03 01:48:08;;;;;;;10.13;5.73;;;-2.50;99.90;;;;;;5098995;27;20296;-75
2022/04/03 01:50:34;;;;;;;12.47;5.00;;;-2.40;99.90;;;;;;5101418;27;20307;-75
2022/04/03 01:53:00;;;;;;;9.60;3.80;;;-2.40;99.90;;;;;;5110741;27;20708;-75
2022/04/03 01:55:26;;;;;;;7.50;3.43;;;-2.40;99.90;;;;;;5104372;27;20297;-76
2022/04/03 01:57:52;;;;;;;6.30;3.03;;;-2.40;99.90;;;;;;5100107;28;20309;-75
2022/04/03 02:00:19;;;;;;;7.30;3.00;;;-2.30;99.90;;;;;;5098750;27;20127;-75
2022/04/03 02:02:45;;;;;;;3.90;2.90;;;-2.30;99.90;;;;;;5102285;27;20044;-77
2022/04/03 02:05:12;;;;;;;4.70;2.70;;;-2.30;99.90;;;;;;5100486;27;20297;-76
2022/04/03 02:07:38;;;;;;;9.33;3.20;;;-2.30;99.90;;;;;;5104176;27;20358;-75
2022/04/03 02:10:08;;;;;;;5.67;2.70;;;-2.30;99.90;;;;;;5099476;27;20293;-75
2022/04/03 02:12:34;;;;;;;8.27;4.50;;;-2.30;99.90;;;;;;5112050;27;20358;-75
2022/04/03 02:15:00;;;;;;;8.37;4.20;;;-2.40;99.90;;;;;;5094872;27;20296;-75
2022/04/03 02:17:27;;;;;;;7.47;4.53;;;-2.30;99.90;;;;;;5107736;27;20050;-75
2022/04/03 02:19:54;;;;;;;6.67;4.30;;;-2.30;99.90;;;;;;5099908;27;20047;-75
2022/04/03 02:22:20;;;;;;;5.87;3.50;;;-2.30;99.90;;;;;;5112233;27;20308;-75
2022/04/03 02:24:46;;;;;;;6.33;3.63;;;-2.20;99.90;;;;;;5106496;27;20297;-75
2022/04/03 02:27:11;;;;;;;7.67;3.73;;;-2.20;99.90;;;;;;5098087;28;20059;-76
2022/04/03 02:29:37;;;;;;;13.40;6.43;;;-2.30;99.90;;;;;;5104900;27;20127;-75
2022/04/03 02:32:04;;;;;;;10.93;4.70;;;-2.30;99.90;;;;;;5097814;27;20040;-74
2022/04/03 02:34:31;;;;;;;9.33;4.40;;;-2.30;99.90;;;;;;5106862;27;20125;-75
2022/04/03 02:36:57;;;;;;;5.80;3.37;;;-2.30;99.90;;;;;;5088025;27;20308;-75
2022/04/03 02:39:23;;;;;;;7.93;3.20;;;-2.30;99.90;;;;;;5108496;27;20654;-76
2022/04/03 02:41:49;;;;;;;6.13;2.63;;;-2.30;99.90;;;;;;5105527;27;20431;-75
2022/04/03 02:44:15;;;;;;;4.50;2.67;;;-2.30;99.90;;;;;;5095696;27;20112;-75
2022/04/03 02:46:41;;;;;;;6.47;2.93;;;-2.30;99.90;;;;;;5105618;27;20049;-75
2022/04/03 02:49:08;;;;;;;9.60;2.80;;;-2.30;99.90;;;;;;5102143;27;20305;-75
2022/04/03 02:51:35;;;;;;;7.87;2.80;;;-2.30;99.90;;;;;;5127662;27;20061;-75
2022/04/03 02:54:01;;;;;;;7.37;3.30;;;-2.30;99.90;;;;;;5103956;27;20372;-75
2022/04/03 02:56:27;;;;;;;5.70;3.20;;;-2.40;99.90;;;;;;5108524;27;20308;-75
2022/04/03 02:58:53;;;;;;;7.30;3.10;;;-2.40;99.90;;;;;;5104960;27;20395;-75
2022/04/03 03:01:19;;;;;;;6.00;3.37;;;-2.30;99.90;;;;;;5104053;28;20384;-75
2022/04/03 03:03:45;;;;;;;6.13;2.83;;;-2.30;99.90;;;;;;5096480;27;20715;-75
2022/04/03 03:06:11;;;;;;;5.17;3.10;;;-2.30;99.90;;;;;;5104153;27;20374;-76
2022/04/03 03:08:38;;;;;;;4.40;3.20;;;-2.30;99.90;;;;;;5108008;27;20304;-75
2022/04/03 03:11:04;;;;;;;7.70;2.80;;;-2.30;99.90;;;;;;5098338;28;20122;-76
2022/04/03 03:13:30;;;;;;;7.70;3.20;;;-2.20;99.90;;;;;;5095599;28;20842;-75
2022/04/03 03:15:56;;;;;;;6.83;3.47;;;-2.30;99.90;;;;;;5106155;28;20318;-75
2022/04/03 03:18:23;;;;;;;7.50;3.47;;;-2.30;99.90;;;;;;5096893;28;20047;-75
2022/04/03 03:20:48;;;;;;;6.67;3.67;;;-2.30;99.90;;;;;;5103796;27;20306;-76
2022/04/03 03:23:14;;;;;;;5.67;3.23;;;-2.20;99.90;;;;;;5097220;28;20401;-75
2022/04/03 03:25:41;;;;;;;7.63;3.60;;;-2.20;99.90;;;;;;5102021;28;20481;-75
2022/04/03 03:28:07;;;;;;;6.10;3.33;;;-2.10;99.90;;;;;;5097812;28;20043;-75
2022/04/03 03:30:34;;;;;;;5.70;3.47;;;-2.00;99.90;;;;;;5108167;28;20327;-75
2022/04/03 03:32:59;;;;;;;8.53;3.57;;;-1.90;99.90;;;;;;5084165;27;20043;-76
2022/04/03 03:35:25;;;;;;;10.47;3.73;;;-1.80;99.90;;;;;;5105454;28;20323;-75
2022/04/03 03:37:51;;;;;;;6.00;3.47;;;-1.70;99.90;;;;;;5104474;28;20036;-75
2022/04/03 03:40:17;;;;;;;9.77;3.53;;;-1.60;99.90;;;;;;5100367;28;20054;-75
2022/04/03 03:42:44;;;;;;;6.23;3.53;;;-1.50;99.90;;;;;;5107417;28;20321;-75
2022/04/03 03:45:12;;;;;;;10.23;4.27;;;-1.50;99.90;;;;;;5106306;28;20043;-76
2022/04/03 03:47:37;;;;;;;6.07;3.77;;;-1.40;99.90;;;;;;5106704;28;20292;-76
2022/04/03 03:50:04;;;;;;;10.47;4.67;;;-1.30;99.90;;;;;;5102298;28;20673;-76
2022/04/03 03:52:30;;;;;;;7.53;3.33;;;-1.30;99.90;;;;;;5099652;28;20051;-76
2022/04/03 03:54:56;;;;;;;7.53;3.47;;;-1.20;99.90;;;;;;5106232;28;20643;-75
2022/04/03 03:57:22;;;;;;;8.13;3.50;;;-1.20;99.90;;;;;;5114581;28;20311;-75
2022/04/03 03:59:49;;;;;;;4.77;3.00;;;-1.10;99.90;;;;;;5098039;28;20505;-76
2022/04/03 04:02:16;;;;;;;4.63;2.80;;;-1.00;99.90;;;;;;5103124;28;20066;-75
2022/04/03 04:04:42;;;;;;;5.90;2.83;;;-1.00;99.90;;;;;;5092850;28;20331;-75
2022/04/03 04:07:07;;;;;;;4.70;2.70;;;-0.90;99.90;;;;;;5103875;28;20294;-75
2022/04/03 04:09:33;;;;;;;5.17;3.50;;;-0.90;99.90;;;;;;5103136;28;20504;-75
2022/04/03 04:11:59;;;;;;;5.57;2.80;;;-0.80;99.90;;;;;;5098673;28;20516;-75
2022/04/03 04:14:24;;;;;;;5.60;2.97;;;-0.80;99.90;;;;;;5103927;28;20043;-75
2022/04/03 04:16:52;;;;;;;5.13;3.20;;;-0.70;99.90;;;;;;5121767;28;20496;-74
2022/04/03 04:19:17;;;;;;;4.67;3.33;;;-0.70;99.90;;;;;;5099298;28;20055;-76
2022/04/03 04:21:43;;;;;;;8.17;3.67;;;-0.70;99.90;;;;;;5104061;28;20300;-75
2022/04/03 04:24:10;;;;;;;9.20;4.03;;;-0.70;99.90;;;;;;5096146;28;20070;-75
2022/04/03 04:26:36;;;;;;;7.27;3.93;;;-0.50;99.90;;;;;;5100599;28;20054;-75
2022/04/03 04:29:02;;;;;;;5.70;3.40;;;-0.60;99.90;;;;;;5109267;27;20324;-76
2022/04/03 04:31:28;;;;;;;6.10;3.40;;;-0.50;99.90;;;;;;5109790;27;20301;-76
2022/04/03 04:33:55;;;;;;;6.13;3.40;;;-0.50;99.90;;;;;;5104029;27;20904;-75
2022/04/03 04:36:21;;;;;;;8.97;3.40;;;-0.40;99.90;;;;;;5127803;27;20138;-75
2022/04/03 04:38:47;;;;;;;7.23;3.50;;;-0.40;99.90;;;;;;5107316;27;20393;-75
2022/04/03 04:41:13;;;;;;;7.00;3.90;;;-0.40;99.90;;;;;;5088423;28;20036;-75
2022/04/03 04:43:38;;;;;;;8.23;3.93;;;-0.40;99.90;;;;;;5100725;27;20393;-75
2022/04/03 04:46:04;;;;;;;6.73;3.63;;;-0.30;99.90;;;;;;5104498;27;20083;-75
2022/04/03 04:48:30;;;;;;;5.07;3.80;;;-0.30;99.90;;;;;;5108424;27;20477;-75
2022/04/03 04:50:57;;;;;;;7.97;3.50;;;-0.30;99.90;;;;;;5104153;27;20084;-75
2022/04/03 04:53:23;;;;;;;4.83;3.20;;;-0.30;99.90;;;;;;5104998;27;20805;-76
2022/04/03 04:55:49;;;;;;;5.63;3.93;;;-0.30;99.90;;;;;;5097677;27;20377;-76
2022/04/03 04:58:15;;;;;;;6.93;3.40;;;-0.30;99.90;;;;;;5095805;27;20035;-75
2022/04/03 05:00:41;;;;;;;8.40;4.23;;;-0.30;99.90;;;;;;5102299;27;20127;-77
2022/04/03 05:03:07;;;;;;;5.57;3.60;;;-0.20;99.90;;;;;;5105592;27;20721;-75
2022/04/03 05:05:35;;;;;;;6.90;3.60;;;-0.30;99.90;;;;;;5094463;27;20043;-75
2022/04/03 05:08:02;;;;;;;6.00;3.90;;;-0.30;99.90;;;;;;5105955;27;20039;-76
2022/04/03 05:10:30;;;;;;;7.00;3.70;;;-0.30;99.90;;;;;;5091618;27;20309;-75
2022/04/03 05:12:57;;;;;;;7.33;3.40;;;-0.40;99.90;;;;;;5089287;27;20817;-75
2022/04/03 05:15:24;;;;;;;8.53;4.20;;;-0.50;99.90;;;;;;5103187;28;20658;-76
2022/04/03 05:17:50;;;;;;;6.53;3.80;;;-0.50;99.90;;;;;;5107612;27;20304;-74
2022/04/03 05:20:16;;;;;;;6.63;3.47;;;-0.60;99.90;;;;;;5105049;28;20294;-75
2022/04/03 05:22:43;;;;;;;8.80;3.40;;;-0.60;99.90;;;;;;5095723;27;20039;-77
2022/04/03 05:25:11;;;;;;;6.93;3.40;;;-0.60;99.90;;;;;;5096971;27;20301;-75
2022/04/03 05:27:38;;;;;;;5.17;3.50;;;-0.70;99.90;;;;;;5112223;27;20820;-75
2022/04/03 05:30:05;;;;;;;7.77;3.37;;;-0.60;99.90;;;;;;5093411;27;20352;-75
2022/04/03 05:32:32;;;;;;;6.53;3.60;;;-0.70;99.90;;;;;;5121061;27;20303;-76
2022/04/03 05:34:58;;;;;;;5.90;4.13;;;-0.70;99.90;;;;;;5109243;27;20809;-75
2022/04/03 05:37:25;;;;;;;7.13;3.63;;;-0.80;99.90;;;;;;5109214;27;20316;-75
2022/04/03 05:39:51;;;;;;;6.43;3.87;;;-0.70;99.90;;;;;;5087710;27;20315;-76
2022/04/03 05:42:19;;;;;;;7.77;3.80;;;-0.70;99.90;;;;;;5108727;27;20309;-75
2022/04/03 05:44:44;;;;;;;5.63;3.97;;;-0.60;99.90;;;;;;5101316;27;20298;-75
2022/04/03 05:47:10;;;;;;;11.80;4.20;;;-0.60;99.90;;;;;;5099330;28;20305;-75
2022/04/03 05:49:37;;;;;;;7.53;4.10;;;-0.60;99.90;;;;;;5103965;27;20473;-75
2022/04/03 05:52:03;;;;;;;8.27;3.97;;;-0.60;99.90;;;;;;5081439;28;20047;-75
2022/04/03 05:54:29;;;;;;;5.47;4.03;;;-0.60;99.90;;;;;;5104152;27;20300;-75
2022/04/03 05:56:55;;;;;;;5.87;3.73;;;-0.60;99.90;;;;;;5091883;27;20305;-75
2022/04/03 05:59:22;;;;;;;7.10;4.43;;;-0.60;99.90;;;;;;5107775;27;20043;-75
2022/04/03 06:01:48;;;;;;;7.97;4.07;;;-0.50;99.90;;;;;;5112002;27;20678;-75
2022/04/03 06:04:14;;;;;;;5.10;3.97;;;-0.60;99.90;;;;;;5111268;27;20300;-75
2022/04/03 06:06:40;;;;;;;7.23;3.80;;;-0.50;99.90;;;;;;5105869;27;20049;-75
2022/04/03 06:09:06;;;;;;;5.93;3.90;;;-0.50;99.90;;;;;;5109723;27;20383;-75
2022/04/03 06:11:31;;;;;;;7.37;4.40;;;-0.40;99.90;;;;;;5108518;27;20043;-75
2022/04/03 06:13:57;;;;;;;6.30;4.37;;;-0.20;99.90;;;;;;5105940;27;20071;-76
2022/04/03 06:16:24;;;;;;;5.60;3.43;;;0.10;99.90;;;;;;5095399;28;20046;-75
2022/04/03 06:18:52;;;;;;;5.63;3.27;;;0.20;99.90;;;;;;5103944;27;20420;-75
2022/04/03 06:21:18;;;;;;;5.53;3.50;;;0.40;99.90;;;;;;5127360;27;20635;-75
2022/04/03 06:23:44;;;;;;;4.77;3.17;;;0.60;99.90;;;;;;5100419;27;20315;-76
2022/04/03 06:26:10;;;;;;;10.50;3.90;;;0.80;99.90;;;;;;5108084;27;20050;-76
2022/04/03 06:28:35;;;;;;;5.00;3.50;;;1.00;99.90;;;;;;5089426;27;20115;-76
2022/04/03 06:31:01;;;;;;;6.13;3.17;;;1.30;99.90;;;;;;5096172;27;20153;-76
2022/04/03 06:33:28;;;;;;;6.50;3.30;;;1.40;99.90;;;;;;5095559;27;20479;-76
2022/04/03 06:35:54;;;;;;;6.80;3.70;;;1.50;99.90;;;;;;5105517;27;20110;-76
2022/04/03 06:38:20;;;;;;;6.30;3.20;;;1.60;99.90;;;;;;5101121;27;20312;-76
2022/04/03 06:40:49;;;;;;;6.57;3.50;;;1.70;99.90;;;;;;5081020;28;20305;-76
2022/04/03 06:43:17;;;;;;;6.40;3.77;;;1.80;99.90;;;;;;5096407;28;20054;-76
2022/04/03 06:45:43;;;;;;;6.33;3.30;;;2.00;99.90;;;;;;5103176;27;20297;-76
2022/04/03 06:48:09;;;;;;;10.53;3.53;;;2.20;99.90;;;;;;5105317;27;20361;-76
2022/04/03 06:50:36;;;;;;;4.30;2.87;;;2.40;99.90;;;;;;5095971;28;20063;-76
2022/04/03 06:53:04;;;;;;;4.50;2.50;;;3.20;99.90;;;;;;5102128;27;20311;-76
2022/04/03 06:55:29;;;;;;;4.13;2.80;;;3.80;99.90;;;;;;5107120;27;20349;-76
2022/04/03 06:57:55;;;;;;;4.50;2.77;;;4.10;99.90;;;;;;5108015;27;20300;-76
2022/04/03 07:00:21;;;;;;;7.00;2.60;;;4.70;99.90;;;;;;5101110;27;20059;-76
2022/04/03 07:02:48;;;;;;;4.60;2.33;;;5.30;99.90;;;;;;5103397;28;20067;-76
2022/04/03 07:05:14;;;;;;;6.03;2.40;;;5.40;99.90;;;;;;5093901;27;20053;-76
2022/04/03 07:07:41;;;;;;;5.23;2.33;;;5.30;99.90;;;;;;5099630;28;20035;-76
2022/04/03 07:10:09;;;;;;;5.90;2.33;;;5.20;99.90;;;;;;5084941;28;20071;-76
2022/04/03 07:12:35;;;;;;;5.90;2.23;;;5.10;99.90;;;;;;5082458;27;20042;-76
2022/04/03 07:15:01;;;;;;;7.57;2.10;;;5.00;99.90;;;;;;5102613;27;20043;-76
2022/04/03 07:17:27;;;;;;;4.43;1.93;;;5.20;99.90;;;;;;5103108;28;20036;-76
2022/04/03 07:19:52;;;;;;;3.97;2.00;;;5.30;99.90;;;;;;5099945;27;20112;-76
2022/04/03 07:22:18;;;;;;;4.27;1.90;;;5.30;99.90;;;;;;5107358;28;20043;-76
2022/04/03 07:24:45;;;;;;;4.20;1.93;;;5.30;99.90;;;;;;5104768;28;20059;-76
2022/04/03 07:27:11;;;;;;;4.03;2.30;;;5.20;99.90;;;;;;5098098;28;20039;-76
2022/04/03 07:29:37;;;;;;;5.47;2.07;;;5.00;99.90;;;;;;5102596;27;20107;-76
2022/04/03 07:32:04;;;;;;;5.73;2.43;;;5.00;99.90;;;;;;5089777;28;20130;-76
2022/04/03 07:34:30;;;;;;;6.70;1.90;;;5.00;99.90;;;;;;5095671;28;20054;-75
2022/04/03 07:36:56;;;;;;;5.03;1.90;;;5.10;99.90;;;;;;5101851;28;20556;-76
2022/04/03 07:39:22;;;;;;;4.33;2.00;;;5.30;99.90;;;;;;5096653;28;20521;-75
2022/04/03 07:41:50;;;;;;;6.73;1.70;;;5.40;99.90;;;;;;5108041;28;20038;-76
2022/04/03 07:44:16;;;;;;;5.57;1.67;;;5.60;99.90;;;;;;5095620;28;20052;-76
2022/04/03 07:46:42;;;;;;;3.63;1.50;;;5.70;99.90;;;;;;5098615;28;20062;-76
2022/04/03 07:49:08;;;;;;;5.00;1.70;;;5.80;99.90;;;;;;5094930;28;20043;-76
2022/04/03 07:51:34;;;;;;;10.20;2.63;;;6.00;99.90;;;;;;5097650;28;20044;-76
2022/04/03 07:54:00;;;;;;;4.60;1.87;;;6.40;99.90;;;;;;5093584;28;20071;-76
2022/04/03 07:56:25;;;;;;;4.90;1.57;;;7.00;99.90;;;;;;5107860;28;20075;-76
2022/04/03 07:58:53;;;;;;;4.47;1.50;;;7.30;99.90;;;;;;5095325;28;20070;-75
2022/04/03 08:01:19;;;;;;;5.87;1.40;;;7.30;99.90;;;;;;5108158;28;20040;-76
2022/04/03 08:03:45;;;;;;;6.83;1.37;;;7.30;99.90;;;;;;5102905;27;20039;-76
2022/04/03 08:06:11;;;;;;;5.17;1.43;;;7.30;99.90;;;;;;5100075;27;20054;-75
2022/04/03 08:08:36;;;;;;;8.53;1.67;;;7.30;99.90;;;;;;5103669;27;20732;-76
2022/04/03 08:11:02;;;;;;;7.77;1.57;;;7.30;99.90;;;;;;5103557;27;20050;-75
2022/04/03 08:13:28;;;;;;;7.53;1.40;;;7.30;99.90;;;;;;5106169;27;20047;-75
2022/04/03 08:15:55;;;;;;;5.40;1.87;;;7.30;99.90;;;;;;5108566;27;20035;-75
2022/04/03 08:18:22;;;;;;;6.80;1.60;;;7.30;99.90;;;;;;5111396;27;20051;-75
2022/04/03 08:20:48;;;;;;;2.87;1.20;;;7.40;99.90;;;;;;5088959;27;20040;-75
2022/04/03 08:23:14;;;;;;;4.77;1.40;;;7.60;99.90;;;;;;5112670;27;20047;-75
2022/04/03 08:25:39;;;;;;;4.77;1.23;;;7.70;99.90;;;;;;5102261;27;20666;-75
2022/04/03 08:28:07;;;;;;;5.33;1.37;;;7.80;99.90;;;;;;5109292;27;20047;-75
2022/04/03 08:30:36;;;;;;;4.57;1.37;;;8.00;99.90;;;;;;5103864;28;20089;-75
2022/04/03 08:33:05;;;;;;;5.43;1.30;;;8.20;99.90;;;;;;5098744;28;20069;-76
2022/04/03 08:35:31;;;;;;;3.53;1.47;;;8.40;99.90;;;;;;5102319;27;20393;-75
2022/04/03 08:37:59;;;;;;;3.70;1.30;;;8.60;99.90;;;;;;5104008;27;20043;-75
2022/04/03 08:40:26;;;;;;;2.37;0.97;;;8.70;99.90;;;;;;5085148;27;20044;-75
2022/04/03 08:42:54;;;;;;;4.47;1.10;;;8.70;99.90;;;;;;5089158;27;20043;-75
2022/04/03 08:45:21;;;;;;;4.27;1.17;;;8.70;99.90;;;;;;5087393;27;20130;-75
2022/04/03 08:47:50;;;;;;;3.23;1.00;;;8.60;99.90;;;;;;5106013;28;20043;-74
2022/04/03 08:50:19;;;;;;;2.23;1.00;;;8.60;99.90;;;;;;5099143;27;20035;-75
2022/04/03 08:52:46;;;;;;;3.83;1.17;;;8.50;99.90;;;;;;5097929;28;20055;-75
2022/04/03 08:55:13;;;;;;;4.53;1.10;;;8.30;99.90;;;;;;5101492;27;20035;-75
2022/04/03 08:57:39;;;;;;;4.40;1.50;;;8.20;99.90;;;;;;5106655;28;20054;-74
2022/04/03 09:00:06;;;;;;;4.57;1.00;;;8.00;99.90;;;;;;5090040;27;20035;-75
2022/04/03 09:02:32;;;;;;;4.03;1.30;;;7.90;99.90;;;;;;5104562;27;20050;-75
2022/04/03 09:04:57;;;;;;;6.37;1.23;;;7.70;99.90;;;;;;5106210;27;20031;-74
2022/04/03 09:07:25;;;;;;;6.50;1.30;;;7.70;99.90;;;;;;5108131;27;20076;-74
2022/04/03 09:09:57;;;;;;;2.73;0.90;;;8.20;99.90;;;;;;5106739;27;20461;-75
2022/04/03 09:12:23;;;;;;;4.00;1.00;;;8.60;99.90;;;;;;5103785;27;20104;-76
2022/04/03 09:14:51;;;;;;;2.47;1.00;;;9.00;99.90;;;;;;5103801;27;20051;-74
2022/04/03 09:17:38;;;;;;;6.27;1.30;;;9.40;99.90;;;;;;5101161;27;20043;-74
2022/04/03 09:20:06;;;;;;;4.87;1.10;;;9.80;99.90;;;;;;5105467;27;20062;-74
2022/04/03 09:22:35;;;;;;;2.87;1.13;;;10.10;99.90;;;;;;5080775;27;20063;-74
2022/04/03 09:25:01;;;;;;;6.47;1.17;;;10.30;99.90;;;;;;5084382;27;20058;-74
2022/04/03 09:27:27;;;;;;;3.33;0.90;;;10.20;99.90;;;;;;5101055;27;20051;-74
2022/04/03 09:30:07;;;;;;;3.73;1.20;;;10.20;99.90;;;;;;5110233;27;20052;-75
2022/04/03 09:32:33;;;;;;;3.63;0.90;;;10.90;99.90;;;;;;5090393;27;20079;-75
2022/04/03 09:34:59;;;;;;;3.83;1.27;;;11.60;99.90;;;;;;5105577;27;20071;-75
2022/04/03 09:37:26;;;;;;;4.23;0.80;;;11.90;99.90;;;;;;5102764;27;20051;-75
2022/04/03 09:39:53;;;;;;;3.23;0.80;;;11.60;98.30;;;;;;5097724;27;20059;-74
2022/04/03 09:42:19;;;;;;;2.40;0.83;;;11.30;98.10;;;;;;5100767;27;20069;-75
2022/04/03 09:44:46;;;;;;;2.03;0.80;;;10.90;98.20;;;;;;5099892;27;20036;-74
2022/04/03 09:47:18;;;;;;;3.17;0.77;;;10.80;97.20;;;;;;5084674;27;20176;-75
2022/04/03 09:49:49;;;;;;;2.07;0.80;;;10.40;97.20;;;;;;5100086;27;20039;-74
2022/04/03 09:52:35;;;;;;;1.03;0.67;;;10.20;97.30;;;;;;5103378;28;20039;-75
2022/04/03 09:55:07;;;;;;;1.80;0.80;;;10.00;97.30;;;;;;5106482;27;20039;-75
2022/04/03 09:57:33;;;;;;;3.00;0.80;;;9.80;97.20;;;;;;5102328;27;20043;-74
2022/04/03 09:59:58;;;;;;;1.47;0.70;;;9.80;97.80;;;;;;5101431;27;20504;-75
2022/04/03 10:02:24;;;;;;;3.70;0.87;;;9.80;97.60;;;;;;5122725;27;20092;-75
2022/04/03 10:04:51;;;;;;;1.23;0.60;;;10.00;97.70;;;;;;5102420;27;20051;-75
2022/04/03 10:07:18;;;;;;;2.53;0.73;;;10.40;97.00;;;;;;5106994;27;20051;-74
2022/04/03 10:09:48;;;;;;;4.73;1.00;;;10.70;96.30;;;;;;5094136;28;20047;-74
2022/04/03 10:12:20;;;;;;;2.67;1.00;;;10.70;96.20;;;;;;5100332;27;20035;-74
2022/04/03 10:14:47;;;;;;;3.97;0.90;;;10.40;96.80;;;;;;5094128;27;20043;-74
2022/04/03 10:17:14;;;;;;;2.37;0.70;;;10.20;98.00;;;;;;5084419;27;20651;-74
2022/04/03 10:19:40;;;;;;;2.67;1.20;;;10.60;98.40;;;;;;5103324;28;20114;-74
2022/04/03 10:22:11;;;;;;;3.00;0.97;;;11.20;99.00;;;;;;5102566;27;20059;-75
2022/04/03 10:24:39;;;;;;;1.77;0.50;;;12.50;99.10;;;;;;5104819;27;20436;-75
2022/04/03 10:27:09;;;;;;;4.20;0.80;;;13.20;97.20;;;;;;5098017;27;20128;-75
2022/04/03 10:29:38;;;;;;;2.80;0.90;;;13.20;95.40;;;;;;5084514;27;20477;-75
2022/04/03 10:32:05;;;;;;;2.77;0.70;;;12.80;94.40;;;;;;5100342;27;20051;-74
2022/04/03 10:34:44;;;;;;;4.33;0.80;;;12.40;93.90;;;;;;5078266;27;20462;-75
2022/04/03 10:37:23;;;;;;;2.67;0.80;;;11.90;94.00;;;;;;5100914;27;20091;-75
2022/04/03 10:39:52;;;;;;;4.33;0.80;;;11.50;94.80;;;;;;5092753;27;20047;-74
2022/04/03 10:42:27;;;;;;;3.53;0.70;;;11.20;95.50;;;;;;5116959;27;20417;-74
2022/04/03 10:45:18;;;;;;;2.50;0.77;;;10.90;96.10;;;;;;5098409;28;20565;-75
2022/04/03 10:47:44;;;;;;;4.93;0.90;;;10.60;96.60;;;;;;5100836;27;20048;-74
2022/04/03 10:50:21;;;;;;;2.60;1.17;;;10.40;96.90;;;;;;5108845;27;20508;-74
2022/04/03 10:52:57;;;;;;;3.73;0.77;;;10.20;97.30;;;;;;5103918;28;20047;-74
2022/04/03 10:55:28;;;;;;;2.90;0.80;;;10.30;98.80;;;;;;5097889;27;20050;-75
2022/04/03 10:57:58;;;;;;;3.60;0.70;;;11.30;99.20;;;;;;5094725;28;20040;-74
2022/04/03 11:00:49;;;;;;;2.07;0.70;;;12.90;97.10;;;;;;5094289;27;20051;-75
2022/04/03 11:03:35;;;;;;;1.80;0.80;;;14.30;94.60;;;;;;5079777;27;20050;-75
2022/04/03 11:06:24;;;;;;;1.60;0.67;;;15.30;93.20;;;;;;5102686;27;20118;-75
2022/04/03 11:08:58;;;;;;;2.20;0.47;;;16.10;90.90;;;;;;5111474;27;20042;-75
2022/04/03 11:11:38;;;;;;;;;;;16.00;87.00;;;;;;5109006;27;20077;-74
2022/04/03 11:14:06;;;;;;;1.23;0.60;;;15.70;86.10;;;;;;5105304;27;19919;-74
2022/04/03 11:16:50;;;;;;;1.80;0.70;;;15.50;84.40;;;;;;5095376;27;20082;-74
2022/04/03 11:19:40;;;;;;;1.80;0.60;;;15.80;81.20;;;;;;5092096;28;20047;-74
2022/04/03 11:22:08;;;;;;;4.70;0.80;;;16.30;80.00;;;;;;5091746;28;20043;-75
2022/04/03 11:24:37;;;;;;;3.70;0.70;;;17.10;78.30;;;;;;5063400;28;20688;-76
2022/04/03 11:27:04;;;;;;;1.43;0.50;;;17.90;77.00;;;;;;5100333;28;20408;-74
2022/04/03 11:29:30;;;;;;;2.00;0.53;;;18.20;71.60;;;;;;5107362;28;20048;-75
2022/04/03 11:31:57;;;;;;;4.10;0.90;;;17.30;68.00;;;;;;5100603;28;20108;-76
2022/04/03 11:34:28;;;;;;;2.60;0.60;;;16.70;71.80;;;;;;5105450;28;20058;-75
2022/04/03 11:36:56;;;;;;;2.73;0.70;;;16.70;72.30;;;;;;5091862;28;20044;-74
2022/04/03 11:39:29;;;;;;;1.63;0.60;;;16.30;70.80;;;;;;5096710;28;20066;-75
2022/04/03 11:41:55;;;;;;;3.72;0.65;;;15.60;69.50;;;;;;5098097;28;20528;-75
2022/04/03 11:44:21;;;;;;;1.47;0.70;;;14.90;69.50;;;;;;5094992;28;20035;-76
2022/04/03 11:46:51;;;;;;;1.93;0.60;;;14.30;72.10;;;;;;5100240;28;20482;-75
2022/04/03 11:49:21;;;;;;;2.43;0.60;;;13.70;73.70;;;;;;5094396;28;20047;-76
2022/04/03 11:51:54;;;;;;;3.80;0.80;;;13.10;75.00;;;;;;5103188;28;20047;-76
2022/04/03 11:54:20;;;;;;;1.60;0.80;;;12.50;77.60;;;;;;5098085;28;20050;-76
2022/04/03 11:56:46;;;;;;;1.77;0.80;;;11.90;80.20;;;;;;5094894;28;20049;-76
2022/04/03 11:59:12;;;;;;;2.70;0.67;;;11.60;82.70;;;;;;5097518;28;20067;-76
2022/04/03 12:01:41;;;;;;;2.80;0.73;;;11.40;84.10;;;;;;5085191;28;20100;-76
2022/04/03 12:04:08;;;;;;;2.83;0.90;;;11.30;85.50;;;;;;5101236;28;20050;-76
2022/04/03 12:06:36;;;;;;;2.20;0.60;;;11.20;87.20;;;;;;5102811;28;20435;-75
2022/04/03 12:09:08;;;;;;;2.90;0.70;;;11.10;87.50;;;;;;5092346;28;20043;-74
2022/04/03 12:11:36;;;;;;;1.87;0.70;;;11.00;87.10;;;;;;5095899;28;20045;-74
2022/04/03 12:14:04;;;;;;;2.73;0.80;;;10.80;87.80;;;;;;5098754;28;20058;-76
2022/04/03 12:16:31;;;;;;;3.33;0.90;;;10.50;90.10;;;;;;5102365;28;20046;-76
2022/04/03 12:18:59;;;;;;;2.00;0.77;;;10.40;91.40;;;;;;5097736;28;20055;-76
2022/04/03 12:21:47;;;;;;;2.70;0.97;;;10.30;92.40;;;;;;5098074;28;20065;-76
2022/04/03 12:24:15;;;;;;;2.13;0.60;;;10.20;92.70;;;;;;5085889;28;20419;-75
2022/04/03 12:26:44;;;;;;;2.57;0.83;;;10.00;93.00;;;;;;5097082;28;20039;-77
2022/04/03 12:29:10;;;;;;;3.17;1.00;;;9.90;93.20;;;;;;5104779;28;20134;-75
2022/04/03 12:31:36;;;;;;;2.40;0.73;;;9.90;93.40;;;;;;5098494;28;20039;-75
2022/04/03 12:34:07;;;;;;;1.10;0.60;;;9.80;93.90;;;;;;5101194;28;20062;-75
2022/04/03 12:36:38;;;;;;;1.23;0.50;;;9.70;94.30;;;;;;5099360;28;20104;-74
2022/04/03 12:39:41;;;;;;;2.23;0.80;;;9.60;94.40;;;;;;5104561;28;20047;-76
2022/04/03 12:42:13;;;;;;;0.60;0.53;;;9.50;94.30;;;;;;5094551;28;20051;-76
2022/04/03 12:45:05;;;;;;;0.97;0.50;;;9.60;94.60;;;;;;5100157;28;20043;-74
2022/04/03 12:47:34;;;;;;;0.90;0.50;;;9.80;94.80;;;;;;5125124;28;20554;-74
2022/04/03 12:50:12;;;;;;;1.67;0.80;;;9.70;94.60;;;;;;5107931;27;20516;-75
2022/04/03 12:52:55;;;;;;;2.10;0.67;;;9.70;94.60;;;;;;5112498;27;20035;-75